createdAt,value
2018-09-01T00:00:22.413Z,95.70
2018-09-01T00:02:49.641Z,95.80
2018-09-01T00:05:16.828Z,96.20
2018-09-01T00:07:44.053Z,96.10
2018-09-01T00:10:11.276Z,96.10
2018-09-01T00:12:38.485Z,96.00
2018-09-01T00:15:05.669Z,96.40
2018-09-01T00:17:32.845Z,96.90
2018-09-01T00:20:01.184Z,96.50
2018-09-01T00:22:28.660Z,96.20
2018-09-01T00:24:56.562Z,96.50
2018-09-01T00:27:24.188Z,96.50
2018-09-01T00:29:51.576Z,97.00
2018-09-01T00:32:19.513Z,97.10
2018-09-01T00:34:46.796Z,96.70
2018-09-01T00:37:18.677Z,96.70
2018-09-01T00:39:46.730Z,96.70
2018-09-01T00:42:14.025Z,97.10
2018-09-01T00:44:41.154Z,97.30
2018-09-01T00:47:08.384Z,97.80
2018-09-01T00:49:35.585Z,97.70
2018-09-01T00:52:02.801Z,98.20
2018-09-01T00:54:30.141Z,97.70
2018-09-01T00:56:57.298Z,98.00
2018-09-01T00:59:24.465Z,98.10
2018-09-01T01:01:53.653Z,98.10
2018-09-01T01:04:20.777Z,98.30
2018-09-01T01:06:47.948Z,98.30
2018-09-01T01:09:15.098Z,98.70
2018-09-01T01:11:42.255Z,98.40
2018-09-01T01:14:09.413Z,98.30
2018-09-01T01:16:36.594Z,98.60
2018-09-01T01:19:03.870Z,98.60
2018-09-01T01:21:31.178Z,98.90
2018-09-01T01:23:58.300Z,98.70
2018-09-01T01:26:25.498Z,98.90
2018-09-01T01:28:52.663Z,99.40
2018-09-01T01:31:19.815Z,99.20
2018-09-01T01:33:47.066Z,98.90
2018-09-01T01:36:14.225Z,99.10
2018-09-01T01:38:41.451Z,99.20
2018-09-01T01:41:08.644Z,99.60
2018-09-01T01:43:35.779Z,99.40
2018-09-01T01:46:02.973Z,99.40
2018-09-01T01:48:30.198Z,99.20
2018-09-01T01:50:57.453Z,98.80
2018-09-01T01:53:24.827Z,99.00
2018-09-01T01:55:52.060Z,99.50
2018-09-01T01:58:19.207Z,99.40
2018-09-01T02:00:46.388Z,99.60
2018-09-01T02:03:13.893Z,99.90
2018-09-01T02:05:41.064Z,99.60
2018-09-01T02:08:08.214Z,99.40
2018-09-01T02:10:35.497Z,99.70
2018-09-01T02:13:02.687Z,99.90
2018-09-01T02:15:29.965Z,99.80
2018-09-01T02:17:57.193Z,99.40
2018-09-01T02:20:25.478Z,99.50
2018-09-01T02:22:52.724Z,99.60
2018-09-01T02:25:19.949Z,99.40
2018-09-01T02:27:47.127Z,99.50
2018-09-01T02:30:14.352Z,99.70
2018-09-01T02:32:41.491Z,99.60
2018-09-01T02:35:08.827Z,99.70
2018-09-01T02:37:35.994Z,99.70
2018-09-01T02:40:04.268Z,99.50
2018-09-01T02:42:31.617Z,99.60
2018-09-01T02:44:58.799Z,99.70
2018-09-01T02:47:26.074Z,99.90
2018-09-01T02:49:53.352Z,99.90
2018-09-01T02:52:20.757Z,99.90
2018-09-01T02:54:47.902Z,99.90
2018-09-01T02:57:15.052Z,99.90
2018-09-01T02:59:42.200Z,99.90
2018-09-01T03:02:09.385Z,99.90
2018-09-01T03:04:36.556Z,99.90
2018-09-01T03:07:03.809Z,99.90
2018-09-01T03:09:31.067Z,99.90
2018-09-01T03:11:58.837Z,99.90
2018-09-01T03:14:26.608Z,99.90
2018-09-01T03:16:54.622Z,99.90
2018-09-01T03:19:22.279Z,99.90
2018-09-01T03:21:49.648Z,99.90
2018-09-01T03:24:16.804Z,99.90
2018-09-01T03:26:43.926Z,99.90
2018-09-01T03:29:11.093Z,99.90
2018-09-01T03:31:38.296Z,99.90
2018-09-01T03:34:05.494Z,99.90
2018-09-01T03:36:32.790Z,99.90
2018-09-01T03:39:00.549Z,99.90
2018-09-01T03:41:27.736Z,99.90
2018-09-01T03:43:54.846Z,99.90
2018-09-01T03:46:22.134Z,99.90
2018-09-01T03:48:49.439Z,99.90
2018-09-01T03:51:16.693Z,99.90
2018-09-01T03:53:43.909Z,99.90
2018-09-01T03:56:11.068Z,99.90
2018-09-01T03:58:38.212Z,99.90
2018-09-01T04:01:05.554Z,99.90
2018-09-01T04:03:32.814Z,99.90
2018-09-01T04:05:59.957Z,99.90
2018-09-01T04:08:27.121Z,99.90
2018-09-01T04:10:54.313Z,99.90
2018-09-01T04:13:21.489Z,99.90
2018-09-01T04:15:49.071Z,99.90
2018-09-01T04:18:16.348Z,99.90
2018-09-01T04:20:43.553Z,99.90
2018-09-01T04:23:10.705Z,99.90
2018-09-01T04:25:37.869Z,99.90
2018-09-01T04:28:05.173Z,99.90
2018-09-01T04:30:32.600Z,99.90
2018-09-01T04:32:59.722Z,99.90
2018-09-01T04:35:26.925Z,99.90
2018-09-01T04:37:54.084Z,99.90
2018-09-01T04:40:21.210Z,99.90
2018-09-01T04:42:49.524Z,99.90
2018-09-01T04:45:16.791Z,99.90
2018-09-01T04:47:43.974Z,99.90
2018-09-01T04:50:11.176Z,99.90
2018-09-01T04:52:38.336Z,99.90
2018-09-01T04:55:05.549Z,99.90
2018-09-01T04:57:33.012Z,99.90
2018-09-01T05:00:00.131Z,99.90
2018-09-01T05:02:27.305Z,99.90
2018-09-01T05:04:54.465Z,99.90
2018-09-01T05:07:21.718Z,99.90
2018-09-01T05:09:48.888Z,99.90
2018-09-01T05:12:16.078Z,99.90
2018-09-01T05:14:43.166Z,99.90
2018-09-01T05:17:10.324Z,99.90
2018-09-01T05:19:37.779Z,99.90
2018-09-01T05:22:04.989Z,99.90
2018-09-01T05:24:38.991Z,99.90
2018-09-01T05:27:06.163Z,99.90
2018-09-01T05:29:33.434Z,99.90
2018-09-01T05:32:00.588Z,99.90
2018-09-01T05:34:28.009Z,99.90
2018-09-01T05:36:55.266Z,99.90
2018-09-01T05:39:22.435Z,99.90
2018-09-01T05:41:49.573Z,99.90
2018-09-01T05:44:16.752Z,99.90
2018-09-01T05:46:43.893Z,99.90
2018-09-01T05:49:11.168Z,99.90
2018-09-01T05:51:38.345Z,99.90
2018-09-01T05:54:05.522Z,99.90
2018-09-01T05:56:32.674Z,99.90
2018-09-01T05:58:59.918Z,99.90
2018-09-01T06:01:28.223Z,99.90
2018-09-01T06:03:55.375Z,99.90
2018-09-01T06:06:22.563Z,99.90
2018-09-01T06:08:49.693Z,99.90
2018-09-01T06:11:17.042Z,99.90
2018-09-01T06:13:45.628Z,99.90
2018-09-01T06:16:13.246Z,99.90
2018-09-01T06:18:40.645Z,99.90
2018-09-01T06:21:08.615Z,99.90
2018-09-01T06:23:36.611Z,99.90
2018-09-01T06:26:03.914Z,99.90
2018-09-01T06:28:35.213Z,99.90
2018-09-01T06:31:03.229Z,99.90
2018-09-01T06:33:30.959Z,99.90
2018-09-01T06:35:58.660Z,99.90
2018-09-01T06:38:25.906Z,99.90
2018-09-01T06:40:54.395Z,99.90
2018-09-01T06:43:22.116Z,99.90
2018-09-01T06:45:50.062Z,99.90
2018-09-01T06:48:18.242Z,99.90
2018-09-01T06:50:45.483Z,99.90
2018-09-01T06:53:13.969Z,99.90
2018-09-01T06:55:41.760Z,99.90
2018-09-01T06:58:09.504Z,99.90
2018-09-01T07:00:36.861Z,99.90
2018-09-01T07:03:04.398Z,99.90
2018-09-01T07:05:31.784Z,99.90
2018-09-01T07:08:00.357Z,99.90
2018-09-01T07:10:27.569Z,99.90
2018-09-01T07:12:56.345Z,99.90
2018-09-01T07:15:23.737Z,99.90
2018-09-01T07:17:51.988Z,99.90
2018-09-01T07:20:19.989Z,99.90
2018-09-01T07:22:47.311Z,99.90
2018-09-01T07:25:14.463Z,99.90
2018-09-01T07:27:41.716Z,99.90
2018-09-01T07:30:12.228Z,99.90
2018-09-01T07:32:39.976Z,99.90
2018-09-01T07:35:08.234Z,99.90
2018-09-01T07:37:36.787Z,99.90
2018-09-01T07:40:04.847Z,99.80
2018-09-01T07:42:32.639Z,99.60
2018-09-01T07:45:00.735Z,99.90
2018-09-01T07:47:28.493Z,99.90
2018-09-01T07:49:56.044Z,99.60
2018-09-01T07:52:24.161Z,99.30
2018-09-01T07:54:51.428Z,98.90
2018-09-01T07:57:18.925Z,98.90
2018-09-01T07:59:46.985Z,98.20
2018-09-01T08:02:15.916Z,98.00
2018-09-01T08:04:44.574Z,98.10
2018-09-01T08:07:12.208Z,98.50
2018-09-01T08:09:39.744Z,98.70
2018-09-01T08:12:07.221Z,98.80
2018-09-01T08:14:34.513Z,98.60
2018-09-01T08:17:04.851Z,98.30
2018-09-01T08:19:32.815Z,98.40
2018-09-01T08:22:00.543Z,97.90
2018-09-01T08:24:27.764Z,97.40
2018-09-01T08:26:54.999Z,97.20
2018-09-01T08:29:22.244Z,97.70
2018-09-01T08:31:49.474Z,98.20
2018-09-01T08:34:16.737Z,98.10
2018-09-01T08:36:43.951Z,98.30
2018-09-01T08:39:11.236Z,97.80
2018-09-01T08:41:38.540Z,97.80
2018-09-01T08:44:05.793Z,97.40
2018-09-01T08:46:33.479Z,97.40
2018-09-01T08:49:01.100Z,97.30
2018-09-01T08:51:28.743Z,97.00
2018-09-01T08:53:55.920Z,96.70
2018-09-01T08:56:23.231Z,96.50
2018-09-01T08:58:51.021Z,95.90
2018-09-01T09:01:18.859Z,95.60
2018-09-01T09:04:49.405Z,95.40
2018-09-01T09:07:20.280Z,94.90
2018-09-01T09:09:47.793Z,93.80
2018-09-01T09:12:16.025Z,93.50
2018-09-01T09:14:43.516Z,94.00
2018-09-01T09:17:10.941Z,93.70
2018-09-01T09:19:38.313Z,93.30
2018-09-01T09:22:05.848Z,93.00
2018-09-01T09:24:47.192Z,92.80
2018-09-01T09:27:15.520Z,93.00
2018-09-01T09:30:00.111Z,91.90
2018-09-01T09:32:29.108Z,92.50
2018-09-01T09:35:01.437Z,91.30
2018-09-01T09:37:30.161Z,91.20
2018-09-01T09:40:00.207Z,90.60
2018-09-01T09:42:29.253Z,90.20
2018-09-01T09:44:59.689Z,89.40
2018-09-01T09:47:29.309Z,88.80
2018-09-01T09:49:57.090Z,89.60
2018-09-01T09:52:24.753Z,88.80
2018-09-01T09:54:52.533Z,89.10
2018-09-01T09:57:27.545Z,89.00
2018-09-01T09:59:59.866Z,86.70
2018-09-01T10:02:28.522Z,85.50
2018-09-01T10:05:01.919Z,83.60
2018-09-01T10:07:36.388Z,82.00
2018-09-01T10:10:05.323Z,84.60
2018-09-01T10:12:33.124Z,84.90
2018-09-01T10:15:00.729Z,84.50
2018-09-01T10:17:29.430Z,86.10
2018-09-01T10:19:57.292Z,85.30
2018-09-01T10:22:24.537Z,84.90
2018-09-01T10:24:51.782Z,85.40
2018-09-01T10:27:19.201Z,86.30
2018-09-01T10:29:46.464Z,85.40
2018-09-01T10:32:13.759Z,86.10
2018-09-01T10:34:41.006Z,86.80
2018-09-01T10:37:10.716Z,85.60
2018-09-01T10:39:38.936Z,85.10
2018-09-01T10:42:07.672Z,84.50
2018-09-01T10:44:35.177Z,84.40
2018-09-01T10:47:03.227Z,85.30
2018-09-01T10:49:31.774Z,84.20
2018-09-01T10:51:59.564Z,84.20
2018-09-01T10:54:27.835Z,83.60
2018-09-01T10:56:56.725Z,81.90
2018-09-01T10:59:28.936Z,81.50
2018-09-01T11:01:56.070Z,79.20
2018-09-01T11:04:25.147Z,78.70
2018-09-01T11:06:52.584Z,79.80
2018-09-01T11:09:22.172Z,80.00
2018-09-01T11:11:49.772Z,78.80
2018-09-01T11:14:17.461Z,78.20
2018-09-01T11:16:44.916Z,77.50
2018-09-01T11:19:13.454Z,75.60
2018-09-01T11:21:41.419Z,74.50
2018-09-01T11:24:09.880Z,74.20
2018-09-01T11:26:37.445Z,74.60
2018-09-01T11:29:05.359Z,73.00
2018-09-01T11:31:32.972Z,71.40
2018-09-01T11:34:00.450Z,69.10
2018-09-01T11:36:29.565Z,68.70
2018-09-01T11:38:57.544Z,68.20
2018-09-01T11:41:25.307Z,70.10
2018-09-01T11:43:52.631Z,68.70
2018-09-01T11:46:20.427Z,70.70
2018-09-01T11:51:16.041Z,71.70
2018-09-01T11:53:44.591Z,71.30
2018-09-01T11:56:12.618Z,72.30
2018-09-01T11:58:53.899Z,72.70
2018-09-01T12:01:21.973Z,72.60
2018-09-01T12:03:49.962Z,71.90
2018-09-01T12:06:17.336Z,69.60
2018-09-01T12:08:45.659Z,70.20
2018-09-01T12:11:14.403Z,70.10
2018-09-01T12:13:43.116Z,69.10
2018-09-01T12:16:16.428Z,66.90
2018-09-01T12:18:43.768Z,65.80
2018-09-01T12:21:11.068Z,65.20
2018-09-01T12:23:42.069Z,64.80
2018-09-01T12:26:09.786Z,64.00
2018-09-01T12:28:37.440Z,64.00
2018-09-01T12:31:04.993Z,63.20
2018-09-01T12:33:32.991Z,62.90
2018-09-01T12:36:00.813Z,63.10
2018-09-01T12:38:28.422Z,63.60
2018-09-01T12:40:55.797Z,61.90
2018-09-01T12:43:23.231Z,60.80
2018-09-01T12:45:50.989Z,60.20
2018-09-01T12:48:19.344Z,59.90
2018-09-01T12:50:46.847Z,58.30
2018-09-01T12:53:14.349Z,58.10
2018-09-01T12:55:41.665Z,57.60
2018-09-01T12:58:08.963Z,57.50
2018-09-01T13:00:39.586Z,57.50
2018-09-01T13:03:07.800Z,56.50
2018-09-01T13:05:35.126Z,56.40
2018-09-01T13:08:03.046Z,56.10
2018-09-01T13:10:30.261Z,56.70
2018-09-01T13:12:58.079Z,56.50
2018-09-01T13:15:25.603Z,56.80
2018-09-01T13:17:52.961Z,55.80
2018-09-01T13:20:20.257Z,54.40
2018-09-01T13:22:47.853Z,53.60
2018-09-01T13:25:15.608Z,52.70
2018-09-01T13:27:43.302Z,52.90
2018-09-01T13:30:12.063Z,52.30
2018-09-01T13:32:40.145Z,52.40
2018-09-01T13:35:10.237Z,51.40
2018-09-01T13:37:43.549Z,51.30
2018-09-01T13:40:11.800Z,50.40
2018-09-01T13:42:39.097Z,50.60
2018-09-01T13:45:06.498Z,49.60
2018-09-01T13:47:34.932Z,50.50
2018-09-01T13:50:03.432Z,50.60
2018-09-01T13:52:31.392Z,50.40
2018-09-01T13:54:59.530Z,49.90
2018-09-01T13:57:27.079Z,50.10
2018-09-01T13:59:54.818Z,50.50
2018-09-01T14:02:23.005Z,49.70
2018-09-01T14:04:51.566Z,49.80
2018-09-01T14:07:19.847Z,50.40
2018-09-01T14:09:47.578Z,50.10
2018-09-01T14:12:15.035Z,50.50
2018-09-01T14:14:42.726Z,49.70
2018-09-01T14:17:10.713Z,49.60
2018-09-01T14:19:39.598Z,50.40
2018-09-01T14:22:06.864Z,50.60
2018-09-01T14:24:35.220Z,49.90
2018-09-01T14:27:02.883Z,48.90
2018-09-01T14:29:30.292Z,48.90
2018-09-01T14:31:57.632Z,48.60
2018-09-01T14:34:26.162Z,48.40
2018-09-01T14:36:53.448Z,49.00
2018-09-01T14:39:20.633Z,48.40
2018-09-01T14:41:50.945Z,48.20
2018-09-01T14:44:19.050Z,48.00
2018-09-01T14:46:47.926Z,47.50
2018-09-01T14:49:15.246Z,46.80
2018-09-01T14:51:43.256Z,46.80
2018-09-01T14:54:10.785Z,46.30
2018-09-01T14:56:38.105Z,46.40
2018-09-01T14:59:06.453Z,47.10
2018-09-01T15:01:33.818Z,47.10
2018-09-01T15:04:01.177Z,46.80
2018-09-01T15:06:29.699Z,46.30
2018-09-01T15:08:57.197Z,46.40
2018-09-01T15:11:25.170Z,46.00
2018-09-01T15:13:53.819Z,45.20
2018-09-01T15:16:21.309Z,45.40
2018-09-01T15:18:48.787Z,44.80
2018-09-01T15:21:16.011Z,45.10
2018-09-01T15:23:43.236Z,45.30
2018-09-01T15:26:12.688Z,45.90
2018-09-01T15:28:40.407Z,45.80
2018-09-01T15:31:07.549Z,46.00
2018-09-01T15:33:35.210Z,46.30
2018-09-01T15:36:02.477Z,46.30
2018-09-01T15:38:30.567Z,46.20
2018-09-01T15:40:57.927Z,46.60
2018-09-01T15:43:25.189Z,46.50
2018-09-01T15:45:52.441Z,46.40
2018-09-01T15:48:19.764Z,46.30
2018-09-01T15:50:47.360Z,46.30
2018-09-01T15:53:14.773Z,46.40
2018-09-01T15:55:42.035Z,46.30
2018-09-01T15:58:09.287Z,46.20
2018-09-01T16:00:36.602Z,46.60
2018-09-01T16:03:04.418Z,46.10
2018-09-01T16:05:31.964Z,45.70
2018-09-01T16:07:59.207Z,45.70
2018-09-01T16:10:28.234Z,45.70
2018-09-01T16:12:56.067Z,45.70
2018-09-01T16:15:23.353Z,45.20
2018-09-01T16:17:50.736Z,44.90
2018-09-01T16:20:23.238Z,44.60
2018-09-01T16:22:50.515Z,44.30
2018-09-01T16:25:21.426Z,44.50
2018-09-01T16:27:49.629Z,45.00
2018-09-01T16:30:17.058Z,44.70
2018-09-01T16:32:44.567Z,44.90
2018-09-01T16:35:11.852Z,45.10
2018-09-01T16:37:39.169Z,44.90
2018-09-01T16:40:06.660Z,45.00
2018-09-01T16:42:33.924Z,44.80
2018-09-01T16:45:01.127Z,44.40
2018-09-01T16:47:28.379Z,44.70
2018-09-01T16:49:56.559Z,45.80
2018-09-01T16:52:23.959Z,44.70
2018-09-01T16:54:51.130Z,44.40
2018-09-01T16:57:18.312Z,44.30
2018-09-01T16:59:45.636Z,44.40
2018-09-01T17:02:12.974Z,44.70
2018-09-01T17:04:40.233Z,43.80
2018-09-01T17:07:07.910Z,44.20
2018-09-01T17:09:35.662Z,44.50
2018-09-01T17:12:02.977Z,44.70
2018-09-01T17:14:30.202Z,44.50
2018-09-01T17:16:57.495Z,45.00
2018-09-01T17:19:29.697Z,45.00
2018-09-01T17:21:56.873Z,44.90
2018-09-01T17:24:24.157Z,44.80
2018-09-01T17:26:52.346Z,44.90
2018-09-01T17:29:19.546Z,44.60
2018-09-01T17:31:46.857Z,45.00
2018-09-01T17:34:14.007Z,44.60
2018-09-01T17:36:41.202Z,45.10
2018-09-01T17:39:09.760Z,46.40
2018-09-01T17:41:38.009Z,46.80
2018-09-01T17:44:05.393Z,47.70
2018-09-01T17:46:33.228Z,48.00
2018-09-01T17:49:00.347Z,48.50
2018-09-01T17:51:27.561Z,49.10
2018-09-01T17:53:54.856Z,49.20
2018-09-01T17:56:22.146Z,49.80
2018-09-01T17:58:49.258Z,50.10
2018-09-01T18:01:17.900Z,50.40
2018-09-01T18:03:45.088Z,50.50
2018-09-01T18:06:12.504Z,50.70
2018-09-01T18:08:39.932Z,50.60
2018-09-01T18:11:09.380Z,51.10
2018-09-01T18:13:36.744Z,51.30
2018-09-01T18:16:04.127Z,51.40
2018-09-01T18:18:31.390Z,51.80
2018-09-01T18:20:58.735Z,51.90
2018-09-01T18:23:26.433Z,52.00
2018-09-01T18:25:54.318Z,52.30
2018-09-01T18:28:21.854Z,52.50
2018-09-01T18:30:49.103Z,52.80
2018-09-01T18:33:16.504Z,52.70
2018-09-01T18:35:43.685Z,53.10
2018-09-01T18:38:10.992Z,53.30
2018-09-01T18:40:38.288Z,53.60
2018-09-01T18:43:05.516Z,54.00
2018-09-01T18:45:37.613Z,54.20
2018-09-01T18:48:04.830Z,54.40
2018-09-01T18:50:32.164Z,54.60
2018-09-01T18:52:59.899Z,54.80
2018-09-01T18:55:27.100Z,54.90
2018-09-01T18:57:54.343Z,55.20
2018-09-01T19:00:22.147Z,55.40
2018-09-01T19:02:50.159Z,55.70
2018-09-01T19:05:17.639Z,55.70
2018-09-01T19:07:46.663Z,55.90
2018-09-01T19:10:13.998Z,56.60
2018-09-01T19:12:41.248Z,56.30
2018-09-01T19:15:08.845Z,56.50
2018-09-01T19:17:36.218Z,56.90
2018-09-01T19:20:03.672Z,57.00
2018-09-01T19:22:30.948Z,57.40
2018-09-01T19:24:58.187Z,57.40
2018-09-01T19:27:25.548Z,57.60
2018-09-01T19:29:53.359Z,57.60
2018-09-01T19:32:20.552Z,57.80
2018-09-01T19:34:47.782Z,58.00
2018-09-01T19:37:15.364Z,58.20
2018-09-01T19:39:42.583Z,58.40
2018-09-01T19:42:09.840Z,58.70
2018-09-01T19:44:37.347Z,58.80
2018-09-01T19:47:04.940Z,58.90
2018-09-01T19:49:32.652Z,59.10
2018-09-01T19:51:59.880Z,59.20
2018-09-01T19:54:27.101Z,59.40
2018-09-01T19:56:54.945Z,59.70
2018-09-01T19:59:22.304Z,59.90
2018-09-01T20:01:52.176Z,60.60
2018-09-01T20:04:22.432Z,60.30
2018-09-01T20:06:49.636Z,60.60
2018-09-01T20:09:16.856Z,60.60
2018-09-01T20:11:44.035Z,60.90
2018-09-01T20:14:11.831Z,60.90
2018-09-01T20:16:38.964Z,61.40
2018-09-01T20:19:06.161Z,61.40
2018-09-01T20:21:33.620Z,62.20
2018-09-01T20:24:03.597Z,63.00
2018-09-01T20:26:35.355Z,62.50
2018-09-01T20:29:05.353Z,63.00
2018-09-01T20:31:32.587Z,63.20
2018-09-01T20:33:59.792Z,63.50
2018-09-01T20:36:27.242Z,63.50
2018-09-01T20:38:55.366Z,63.90
2018-09-01T20:41:22.546Z,64.80
2018-09-01T20:43:50.941Z,64.90
2018-09-01T20:46:18.102Z,65.50
2018-09-01T20:48:45.361Z,65.30
2018-09-01T20:51:12.591Z,65.20
2018-09-01T20:53:40.077Z,65.70
2018-09-01T20:56:07.296Z,66.00
2018-09-01T20:58:34.755Z,66.20
2018-09-01T21:01:02.210Z,66.40
2018-09-01T21:03:29.629Z,66.70
2018-09-01T21:05:57.834Z,67.10
2018-09-01T21:08:25.137Z,67.80
2018-09-01T21:10:52.690Z,67.60
2018-09-01T21:15:56.870Z,68.70
2018-09-01T21:18:25.073Z,69.40
2018-09-01T21:20:52.488Z,69.20
2018-09-01T21:23:20.016Z,70.40
2018-09-01T21:25:48.472Z,69.90
2018-09-01T21:28:15.705Z,70.90
2018-09-01T21:30:47.662Z,70.90
2018-09-01T21:33:14.804Z,71.70
2018-09-01T21:35:42.728Z,72.20
2018-09-01T21:38:10.576Z,72.70
2018-09-01T21:40:37.721Z,73.20
2018-09-01T21:43:07.256Z,74.00
2018-09-01T21:45:34.854Z,74.00
2018-09-01T21:48:02.845Z,74.40
2018-09-01T21:50:31.104Z,74.60
2018-09-01T21:52:58.449Z,75.30
2018-09-01T21:55:26.049Z,75.00
2018-09-01T21:57:53.258Z,75.80
2018-09-01T22:00:20.412Z,75.60
2018-09-01T22:02:49.203Z,76.60
2018-09-01T22:05:18.635Z,76.50
2018-09-01T22:07:46.406Z,76.80
2018-09-01T22:10:13.871Z,77.60
2018-09-01T22:12:42.508Z,78.20
2018-09-01T22:15:10.656Z,78.50
2018-09-01T22:17:37.863Z,78.90
2018-09-01T22:20:05.095Z,79.60
2018-09-01T22:22:35.588Z,80.10
2018-09-01T22:25:02.787Z,80.30
2018-09-01T22:27:31.739Z,80.20
2018-09-01T22:29:58.981Z,80.50
2018-09-01T22:32:26.911Z,81.20
2018-09-01T22:34:55.145Z,81.40
2018-09-01T22:37:24.092Z,82.30
2018-09-01T22:39:51.249Z,83.00
2018-09-01T22:42:18.486Z,83.80
2018-09-01T22:44:47.142Z,83.90
2018-09-01T22:47:18.932Z,84.10
2018-09-01T22:49:46.266Z,84.30
2018-09-01T22:52:13.433Z,84.80
2018-09-01T22:54:40.638Z,84.10
2018-09-01T22:57:07.740Z,84.30
2018-09-01T22:59:34.901Z,84.50
2018-09-01T23:02:02.150Z,85.60
2018-09-01T23:04:29.336Z,85.90
2018-09-01T23:06:56.470Z,86.30
2018-09-01T23:09:23.652Z,86.60
2018-09-01T23:11:51.057Z,86.80
2018-09-01T23:14:18.240Z,87.30
2018-09-01T23:16:45.427Z,87.20
2018-09-01T23:19:12.673Z,87.40
2018-09-01T23:21:39.850Z,87.40
2018-09-01T23:24:06.994Z,87.50
2018-09-01T23:26:34.183Z,88.20
2018-09-01T23:29:01.349Z,88.80
2018-09-01T23:31:28.489Z,88.80
2018-09-01T23:33:55.697Z,88.80
2018-09-01T23:36:22.847Z,88.90
2018-09-01T23:38:50.054Z,89.40
2018-09-01T23:41:17.424Z,89.40
2018-09-01T23:43:44.596Z,89.30
2018-09-01T23:46:11.715Z,89.30
2018-09-01T23:48:38.936Z,89.50
2018-09-01T23:51:06.188Z,89.90
2018-09-01T23:53:33.467Z,90.00
2018-09-01T23:56:00.779Z,90.10
2018-09-01T23:58:28.147Z,90.20
